Time;durP1;ratioP1;P1;durP2;ratioP2;P2;SDS_P1;SDS_P2;PMS_P1;PMS_P2;Temp;Humidity;BMP_temperature;BMP_pressure;BME280_temperature;BME280_humidity;BME280_pressure;Samples;Min_cycle;Max_cycle;Signal;HPM_P1;HPM_P2
2021/04/05 00:01:22;;;;;;;29.65;10.85;;;5.70;87.20;;;;;;5019772;28;20041;-54
2021/04/05 00:03:47;;;;;;;27.45;10.50;;;5.70;87.30;;;;;;5034454;28;20037;-52
2021/04/05 00:06:13;;;;;;;29.67;11.02;;;5.70;87.30;;;;;;5024410;28;20052;-54
2021/04/05 00:08:39;;;;;;;25.75;10.70;;;5.80;87.00;;;;;;5033529;28;20056;-53
2021/04/05 00:11:05;;;;;;;25.88;10.52;;;5.70;86.90;;;;;;5022955;28;20033;-52
2021/04/05 00:13:34;;;;;;;21.55;10.75;;;5.80;87.20;;;;;;5024245;28;20050;-54
2021/04/05 00:16:00;;;;;;;30.20;12.23;;;5.80;87.00;;;;;;5028149;28;20041;-53
2021/04/05 00:18:27;;;;;;;28.23;12.32;;;5.80;87.20;;;;;;5030718;28;20042;-52
2021/04/05 00:21:09;;;;;;;23.65;10.15;;;5.80;87.20;;;;;;5024747;28;20038;-56
2021/04/05 00:23:35;;;;;;;28.63;11.98;;;5.90;87.20;;;;;;5026150;28;20056;-52
2021/04/05 00:26:02;;;;;;;27.45;11.15;;;5.90;87.20;;;;;;5028870;28;20071;-55
2021/04/05 00:28:28;;;;;;;30.88;11.13;;;5.90;87.40;;;;;;5020956;28;20541;-52
2021/04/05 00:30:54;;;;;;;31.25;11.50;;;5.90;87.20;;;;;;5026487;28;20624;-51
2021/04/05 00:33:21;;;;;;;29.27;12.60;;;6.00;87.20;;;;;;5031583;28;20056;-51
2021/04/05 00:35:47;;;;;;;28.02;11.45;;;6.00;87.60;;;;;;5032170;28;20037;-52
2021/04/05 00:38:14;;;;;;;29.25;11.73;;;6.00;87.70;;;;;;5020203;28;20072;-52
2021/04/05 00:40:50;;;;;;;30.92;12.05;;;6.10;87.60;;;;;;5026265;28;20041;-53
2021/04/05 00:43:17;;;;;;;28.13;12.10;;;6.20;87.70;;;;;;5029284;28;20060;-50
2021/04/05 00:45:44;;;;;;;30.23;12.82;;;6.20;87.90;;;;;;5018912;28;20041;-52
2021/04/05 00:48:12;;;;;;;31.45;12.00;;;6.30;87.60;;;;;;5035400;28;20052;-52
2021/04/05 00:50:54;;;;;;;30.63;12.95;;;6.30;87.60;;;;;;5018926;28;20410;-51
2021/04/05 00:53:31;;;;;;;29.67;11.48;;;6.40;87.50;;;;;;5029647;28;20497;-51
2021/04/05 00:56:00;;;;;;;29.50;12.13;;;6.40;87.30;;;;;;5029443;28;20361;-53
2021/04/05 00:58:27;;;;;;;34.22;12.07;;;6.40;87.50;;;;;;5032946;28;20113;-51
2021/04/05 01:00:55;;;;;;;47.00;12.43;;;6.40;87.80;;;;;;5033277;28;20124;-51
2021/04/05 01:03:24;;;;;;;37.13;12.55;;;6.40;87.70;;;;;;5034023;28;20065;-52
2021/04/05 01:05:56;;;;;;;33.95;12.70;;;6.40;87.80;;;;;;5033556;28;20470;-52
2021/04/05 01:08:22;;;;;;;31.42;12.30;;;6.40;87.60;;;;;;5032929;28;20042;-56
2021/04/05 01:10:48;;;;;;;35.28;13.05;;;6.50;87.90;;;;;;5027275;28;20120;-56
2021/04/05 01:13:16;;;;;;;29.23;12.32;;;6.50;88.10;;;;;;5034126;28;20090;-55
2021/04/05 01:15:42;;;;;;;32.17;12.60;;;6.50;88.20;;;;;;5029114;28;20080;-52
2021/04/05 01:18:08;;;;;;;35.28;13.63;;;6.50;88.30;;;;;;5025511;28;20370;-53
2021/04/05 01:20:34;;;;;;;33.20;12.82;;;6.50;88.40;;;;;;5030922;28;20108;-55
2021/04/05 01:23:02;;;;;;;35.58;14.18;;;6.50;88.50;;;;;;5032863;28;20049;-53
2021/04/05 01:25:28;;;;;;;32.33;13.63;;;6.50;88.60;;;;;;5023377;28;20122;-52
2021/04/05 01:27:55;;;;;;;36.90;13.48;;;6.50;88.40;;;;;;5021586;28;20048;-52
2021/04/05 01:30:33;;;;;;;30.85;13.15;;;6.50;88.70;;;;;;5027314;28;20041;-52
2021/04/05 01:33:06;;;;;;;35.53;13.77;;;6.50;88.80;;;;;;5020565;28;20092;-52
2021/04/05 01:35:36;;;;;;;37.17;14.52;;;6.50;89.00;;;;;;5031677;28;20391;-53
2021/04/05 01:38:03;;;;;;;33.78;13.65;;;6.50;89.20;;;;;;5018782;28;20033;-52
2021/04/05 01:40:29;;;;;;;44.60;13.48;;;6.50;89.40;;;;;;5030188;28;20108;-52
2021/04/05 01:42:55;;;;;;;40.08;13.75;;;6.60;89.70;;;;;;5032466;28;20137;-55
2021/04/05 01:45:21;;;;;;;41.35;15.63;;;6.60;89.70;;;;;;5025766;28;20414;-55
2021/04/05 01:47:47;;;;;;;34.40;14.18;;;6.60;90.00;;;;;;5031328;28;20418;-54
2021/04/05 01:50:13;;;;;;;42.30;14.82;;;6.70;90.20;;;;;;5025185;28;20469;-54
2021/04/05 01:52:41;;;;;;;43.75;14.38;;;6.70;90.10;;;;;;5026525;28;20045;-55
2021/04/05 01:55:09;;;;;;;35.38;13.68;;;6.70;90.20;;;;;;5024857;28;20041;-55
2021/04/05 01:57:36;;;;;;;34.88;13.70;;;6.80;90.20;;;;;;5024936;28;20076;-52
2021/04/05 02:00:13;;;;;;;39.92;14.18;;;6.80;90.20;;;;;;5031414;28;20053;-55
2021/04/05 02:02:40;;;;;;;42.38;13.23;;;6.90;90.40;;;;;;5024247;28;20038;-55
2021/04/05 02:05:08;;;;;;;41.03;13.50;;;6.90;90.40;;;;;;5026413;28;20049;-53
2021/04/05 02:07:39;;;;;;;32.25;11.52;;;7.00;90.30;;;;;;5023536;28;20049;-53
2021/04/05 02:10:08;;;;;;;32.65;11.57;;;7.10;89.50;;;;;;5032019;28;20288;-53
2021/04/05 02:12:35;;;;;;;31.70;11.43;;;7.20;88.60;;;;;;5027807;28;20046;-53
2021/04/05 02:15:04;;;;;;;28.60;10.13;;;7.40;88.20;;;;;;5029560;28;20041;-53
2021/04/05 02:17:29;;;;;;;29.52;10.63;;;7.50;87.40;;;;;;5030858;28;20648;-55
2021/04/05 02:19:55;;;;;;;31.35;10.73;;;7.50;86.60;;;;;;5029694;28;20446;-55
2021/04/05 02:22:21;;;;;;;31.85;11.30;;;7.60;86.20;;;;;;5031934;28;20073;-53
2021/04/05 02:24:47;;;;;;;28.27;10.23;;;7.60;86.10;;;;;;5031576;28;20132;-52
2021/04/05 02:27:13;;;;;;;39.83;11.25;;;7.60;85.90;;;;;;5025452;28;20050;-51
2021/04/05 02:29:39;;;;;;;29.42;10.75;;;7.70;85.60;;;;;;5032146;28;20052;-53
2021/04/05 02:32:05;;;;;;;27.40;10.27;;;7.70;85.70;;;;;;5032123;28;20037;-52
2021/04/05 02:34:31;;;;;;;32.47;11.00;;;7.70;85.70;;;;;;5023509;28;20038;-53
2021/04/05 02:36:57;;;;;;;31.02;10.05;;;7.70;85.10;;;;;;5030697;28;20138;-51
2021/04/05 02:39:23;;;;;;;30.80;10.65;;;7.70;85.20;;;;;;5023751;28;20037;-53
2021/04/05 02:41:50;;;;;;;35.17;11.55;;;7.70;85.30;;;;;;5020249;28;20072;-53
2021/04/05 02:44:18;;;;;;;30.15;9.52;;;7.70;85.30;;;;;;5017809;28;20040;-53
2021/04/05 02:46:47;;;;;;;24.20;9.18;;;7.70;85.10;;;;;;5022194;28;20041;-55
2021/04/05 02:49:15;;;;;;;28.73;9.88;;;7.70;85.20;;;;;;5024249;28;20033;-50
2021/04/05 02:51:46;;;;;;;28.85;9.48;;;7.80;85.00;;;;;;5019553;28;20050;-53
2021/04/05 02:54:13;;;;;;;23.85;8.80;;;7.70;84.90;;;;;;5023137;28;20037;-50
2021/04/05 02:56:40;;;;;;;25.15;9.93;;;7.80;84.80;;;;;;5020557;28;20511;-54
2021/04/05 02:59:07;;;;;;;24.90;9.10;;;7.80;84.80;;;;;;5029728;28;20137;-50
2021/04/05 03:01:33;;;;;;;26.58;10.23;;;7.80;85.00;;;;;;5026211;28;20073;-49
2021/04/05 03:04:00;;;;;;;29.63;9.65;;;7.70;85.20;;;;;;5024715;28;20052;-54
2021/04/05 03:06:28;;;;;;;26.02;8.80;;;7.70;85.10;;;;;;5025689;28;20036;-53
2021/04/05 03:08:54;;;;;;;24.17;9.05;;;7.70;85.10;;;;;;5025853;28;20041;-56
2021/04/05 03:11:23;;;;;;;24.15;8.77;;;7.70;85.00;;;;;;5020488;28;20133;-54
2021/04/05 03:13:50;;;;;;;27.40;8.98;;;7.80;84.80;;;;;;5031164;28;20453;-53
2021/04/05 03:16:24;;;;;;;23.90;8.50;;;7.80;84.60;;;;;;5026357;28;20088;-53
2021/04/05 03:18:52;;;;;;;24.20;9.02;;;7.80;84.70;;;;;;5042223;28;20029;-53
2021/04/05 03:21:20;;;;;;;26.13;9.52;;;7.80;84.80;;;;;;5030656;28;20053;-54
2021/04/05 03:23:46;;;;;;;25.30;9.00;;;7.90;84.80;;;;;;5027660;28;20102;-54
2021/04/05 03:26:13;;;;;;;21.10;8.25;;;7.90;84.80;;;;;;5030705;28;20087;-54
2021/04/05 03:28:39;;;;;;;25.73;8.98;;;7.80;85.10;;;;;;5026242;28;20045;-53
2021/04/05 03:31:04;;;;;;;24.77;8.55;;;7.80;85.90;;;;;;5031120;28;20052;-51
2021/04/05 03:33:50;;;;;;;20.23;7.90;;;7.80;86.80;;;;;;5018881;28;20103;-53
2021/04/05 03:36:45;;;;;;;20.35;8.68;;;7.80;86.90;;;;;;5028438;28;20502;-53
2021/04/05 03:39:14;;;;;;;21.85;8.43;;;7.80;87.30;;;;;;5005965;28;20099;-54
2021/04/05 03:41:59;;;;;;;26.55;9.32;;;7.80;87.70;;;;;;5026856;28;20038;-54
2021/04/05 03:44:39;;;;;;;27.25;9.73;;;7.70;87.90;;;;;;5028917;28;20069;-53
2021/04/05 03:47:11;;;;;;;24.45;8.48;;;7.70;88.10;;;;;;5018853;28;20099;-54
2021/04/05 03:49:43;;;;;;;25.10;8.90;;;7.70;88.30;;;;;;5028631;28;20050;-53
2021/04/05 03:52:32;;;;;;;26.00;8.65;;;7.70;88.40;;;;;;5030756;28;20040;-53
2021/04/05 03:55:02;;;;;;;31.17;8.45;;;7.70;88.30;;;;;;5022774;28;20050;-53
2021/04/05 03:57:33;;;;;;;23.88;8.88;;;7.70;87.90;;;;;;5028509;28;20045;-54
2021/04/05 04:00:09;;;;;;;23.52;8.77;;;7.70;88.20;;;;;;5025886;28;20042;-54
2021/04/05 04:02:46;;;;;;;29.23;8.43;;;7.70;88.00;;;;;;5021960;28;20449;-53
2021/04/05 04:05:50;;;;;;;25.42;8.65;;;7.70;88.10;;;;;;5025804;28;20036;-53
2021/04/05 04:08:49;;;;;;;28.38;8.93;;;7.80;87.80;;;;;;5023089;28;20478;-53
2021/04/05 04:11:01;;;;;;;25.13;8.52;;;7.80;87.40;;;;;;5012754;28;20093;-53
2021/04/05 04:13:28;;;;;;;21.60;8.13;;;7.80;87.40;;;;;;5010368;28;20556;-53
2021/04/05 04:15:56;;;;;;;22.20;7.68;;;7.80;87.70;;;;;;5018910;28;20079;-55
2021/04/05 04:18:23;;;;;;;21.80;7.30;;;7.80;87.50;;;;;;5025938;28;20049;-55
2021/04/05 04:20:50;;;;;;;33.10;8.68;;;7.80;87.20;;;;;;5029179;28;20069;-54
2021/04/05 04:23:16;;;;;;;25.45;7.32;;;7.90;87.50;;;;;;5028941;28;20482;-53
2021/04/05 04:25:42;;;;;;;20.55;5.28;;;7.90;88.30;;;;;;5026813;28;20537;-55
2021/04/05 04:28:13;;;;;;;15.57;3.97;;;7.80;88.10;;;;;;5026739;28;20052;-55
2021/04/05 04:30:40;;;;;;;9.10;2.47;;;7.60;87.80;;;;;;5027340;28;20043;-54
2021/04/05 04:33:09;;;;;;;9.52;2.00;;;7.40;87.30;;;;;;5030434;28;20288;-55
2021/04/05 04:35:36;;;;;;;13.35;2.30;;;7.20;87.10;;;;;;5028885;28;20053;-55
2021/04/05 04:38:04;;;;;;;12.60;1.85;;;6.90;87.20;;;;;;5021360;28;20048;-53
2021/04/05 04:40:33;;;;;;;6.85;1.55;;;6.80;85.60;;;;;;5026815;28;20042;-54
2021/04/05 04:43:01;;;;;;;4.93;1.20;;;6.50;86.70;;;;;;5025512;28;20038;-54
2021/04/05 04:45:28;;;;;;;9.10;1.55;;;6.40;86.60;;;;;;5018473;28;20025;-53
2021/04/05 04:47:55;;;;;;;3.95;1.17;;;6.20;86.20;;;;;;5015371;28;20053;-54
2021/04/05 04:50:22;;;;;;;2.30;1.00;;;6.00;87.00;;;;;;5034246;28;20041;-53
2021/04/05 04:52:48;;;;;;;5.20;1.10;;;5.90;87.70;;;;;;5031866;28;20145;-53
2021/04/05 04:55:18;;;;;;;2.60;0.80;;;5.80;87.90;;;;;;5031028;28;20121;-54
2021/04/05 04:57:44;;;;;;;3.78;1.23;;;5.70;87.50;;;;;;5032907;28;20049;-54
2021/04/05 05:00:11;;;;;;;3.90;0.90;;;5.60;87.90;;;;;;5033442;28;20418;-54
2021/04/05 05:02:41;;;;;;;3.78;1.00;;;5.50;87.90;;;;;;5026652;28;20120;-53
2021/04/05 05:05:09;;;;;;;5.78;1.20;;;5.50;87.00;;;;;;5024405;28;20095;-54
2021/04/05 05:07:36;;;;;;;5.82;1.42;;;5.50;86.30;;;;;;5028449;28;20049;-53
2021/04/05 05:10:06;;;;;;;2.17;1.00;;;5.40;85.90;;;;;;5032803;28;20065;-54
2021/04/05 05:12:32;;;;;;;5.82;1.20;;;5.40;85.50;;;;;;5031902;28;20052;-53
2021/04/05 05:14:59;;;;;;;5.65;1.40;;;5.30;85.20;;;;;;5033471;28;20045;-55
2021/04/05 05:17:26;;;;;;;4.50;1.10;;;5.30;85.60;;;;;;5020887;28;20128;-54
2021/04/05 05:19:53;;;;;;;4.90;1.45;;;5.20;85.40;;;;;;5019579;28;20050;-54
2021/04/05 05:22:20;;;;;;;7.43;1.67;;;5.20;86.10;;;;;;5017591;28;20049;-50
2021/04/05 05:24:47;;;;;;;4.65;1.35;;;5.10;86.30;;;;;;5040012;28;20033;-52
2021/04/05 05:27:14;;;;;;;6.55;1.20;;;5.10;86.70;;;;;;5021319;28;20052;-54
2021/04/05 05:29:40;;;;;;;8.65;1.50;;;5.00;87.50;;;;;;5022369;28;20038;-55
2021/04/05 05:32:07;;;;;;;5.85;1.23;;;5.00;87.30;;;;;;5025436;28;20050;-53
2021/04/05 05:34:34;;;;;;;9.23;1.77;;;5.10;87.90;;;;;;5026151;28;20045;-51
2021/04/05 05:37:00;;;;;;;11.38;1.50;;;5.00;88.10;;;;;;5028434;28;20103;-56
2021/04/05 05:39:26;;;;;;;8.30;2.05;;;4.90;88.50;;;;;;5028139;28;20037;-50
2021/04/05 05:42:19;;;;;;;8.13;1.58;;;4.90;88.70;;;;;;5019692;28;20043;-54
2021/04/05 05:44:56;;;;;;;8.93;1.70;;;4.90;88.90;;;;;;5020428;28;20475;-51
2021/04/05 05:47:22;;;;;;;10.52;1.80;;;4.90;89.20;;;;;;5021931;28;20037;-49
2021/04/05 05:49:49;;;;;;;9.30;1.70;;;5.00;89.60;;;;;;5048060;28;20049;-51
2021/04/05 05:52:42;;;;;;;10.18;1.67;;;4.90;89.50;;;;;;5032340;28;20041;-48
2021/04/05 05:55:32;;;;;;;9.88;1.92;;;4.90;90.10;;;;;;5020002;28;20459;-51
2021/04/05 05:58:11;;;;;;;5.55;1.00;;;4.90;90.20;;;;;;5024239;28;20516;-50
2021/04/05 06:00:50;;;;;;;7.15;1.02;;;4.80;90.20;;;;;;5023332;28;20064;-52
2021/04/05 06:03:50;;;;;;;8.68;1.17;;;4.70;88.80;;;;;;5006844;28;20042;-53
2021/04/05 06:06:20;;;;;;;6.45;1.42;;;4.60;89.30;;;;;;5026355;28;20106;-52
2021/04/05 06:09:18;;;;;;;4.82;1.58;;;4.60;89.80;;;;;;5021158;28;20342;-51
2021/04/05 06:12:05;;;;;;;4.07;1.00;;;4.50;90.10;;;;;;5028400;28;20052;-51
2021/04/05 06:14:36;;;;;;;3.75;0.95;;;4.50;90.20;;;;;;5027793;28;20053;-52
2021/04/05 06:17:28;;;;;;;5.25;0.82;;;4.40;89.50;;;;;;5031181;28;20449;-51
2021/04/05 06:20:10;;;;;;;3.40;0.80;;;4.50;89.60;;;;;;5031296;28;20044;-51
2021/04/05 06:22:51;;;;;;;4.57;0.93;;;4.40;89.60;;;;;;5027423;28;20391;-50
2021/04/05 06:25:27;;;;;;;2.67;0.85;;;4.40;89.30;;;;;;5017820;28;20041;-53
2021/04/05 06:28:13;;;;;;;6.13;1.08;;;4.40;89.00;;;;;;5031558;28;20049;-53
2021/04/05 06:31:05;;;;;;;6.82;1.50;;;4.30;88.30;;;;;;5043682;28;20493;-53
2021/04/05 06:33:34;;;;;;;8.13;1.40;;;4.40;87.30;;;;;;5029801;28;20041;-53
2021/04/05 06:36:18;;;;;;;8.70;1.85;;;4.40;85.40;;;;;;5020231;28;20402;-54
2021/04/05 06:38:56;;;;;;;8.07;1.27;;;4.40;85.90;;;;;;5023291;28;20057;-53
2021/04/05 06:41:35;;;;;;;11.15;1.77;;;4.30;86.10;;;;;;5028054;28;20077;-50
2021/04/05 06:44:29;;;;;;;10.68;1.60;;;4.30;84.40;;;;;;5025045;28;20215;-54
2021/04/05 06:47:19;;;;;;;10.00;1.60;;;4.30;84.20;;;;;;5033520;28;20057;-56
2021/04/05 06:50:04;;;;;;;13.85;2.45;;;4.30;84.80;;;;;;5023983;28;20398;-50
2021/04/05 06:52:59;;;;;;;9.65;1.98;;;4.30;84.80;;;;;;5043056;28;20037;-52
2021/04/05 06:55:31;;;;;;;16.92;2.30;;;4.30;84.70;;;;;;5010282;28;20049;-53
2021/04/05 06:58:36;;;;;;;16.42;2.45;;;4.40;84.20;;;;;;5024441;28;20055;-53
2021/04/05 07:01:32;;;;;;;12.70;2.40;;;4.40;84.00;;;;;;5020639;28;20461;-52
2021/04/05 07:04:37;;;;;;;9.50;1.90;;;4.40;84.10;;;;;;5030868;28;20414;-54
2021/04/05 07:07:06;;;;;;;15.07;2.22;;;4.40;83.30;;;;;;5023305;28;20068;-53
2021/04/05 07:09:39;;;;;;;12.73;1.90;;;4.50;82.80;;;;;;5023306;28;20406;-53
2021/04/05 07:12:27;;;;;;;10.50;2.30;;;4.50;82.60;;;;;;5026955;28;20041;-55
2021/04/05 07:15:20;;;;;;;15.43;2.50;;;4.50;79.80;;;;;;5027288;28;20041;-54
2021/04/05 07:18:08;;;;;;;17.42;2.67;;;4.50;77.80;;;;;;5011640;28;20042;-53
2021/04/05 07:21:13;;;;;;;17.63;2.72;;;4.40;76.30;;;;;;5030438;28;20041;-53
2021/04/05 07:23:57;;;;;;;16.40;3.40;;;4.40;76.70;;;;;;5025472;28;20439;-54
2021/04/05 07:26:23;;;;;;;15.27;2.20;;;4.50;77.00;;;;;;5029456;28;20052;-54
2021/04/05 07:29:00;;;;;;;12.02;2.20;;;4.50;75.40;;;;;;5026436;28;20049;-54
2021/04/05 07:31:39;;;;;;;14.48;2.50;;;4.50;73.90;;;;;;5029027;28;20437;-54
2021/04/05 07:34:32;;;;;;;11.90;2.00;;;4.50;74.50;;;;;;5025406;28;20107;-54
2021/04/05 07:37:04;;;;;;;9.00;2.20;;;4.50;75.00;;;;;;5014507;28;20446;-55
2021/04/05 07:39:46;;;;;;;9.43;1.58;;;4.50;74.20;;;;;;5023040;28;20148;-53
2021/04/05 07:42:33;;;;;;;11.07;1.65;;;4.50;72.90;;;;;;5015583;28;20418;-54
2021/04/05 07:45:10;;;;;;;10.32;1.70;;;4.60;71.50;;;;;;5028987;28;20120;-55
2021/04/05 07:48:04;;;;;;;9.80;2.03;;;4.60;72.10;;;;;;5016844;28;20046;-54
2021/04/05 07:50:56;;;;;;;8.73;1.30;;;4.60;70.40;;;;;;5022022;28;20057;-52
2021/04/05 07:53:26;;;;;;;7.97;1.30;;;4.60;70.70;;;;;;5018252;28;20045;-51
2021/04/05 07:55:55;;;;;;;7.57;1.50;;;4.60;70.30;;;;;;5015015;28;20564;-51
2021/04/05 07:58:58;;;;;;;5.55;1.00;;;4.60;71.80;;;;;;5021941;28;20633;-55
2021/04/05 08:01:40;;;;;;;6.65;1.02;;;4.50;72.50;;;;;;5016484;28;20053;-52
2021/04/05 08:04:22;;;;;;;5.80;1.38;;;4.30;74.20;;;;;;5013573;28;20453;-52
2021/04/05 08:07:06;;;;;;;8.98;1.30;;;4.30;75.80;;;;;;5015167;28;20141;-53
2021/04/05 08:09:58;;;;;;;5.85;1.00;;;4.30;76.00;;;;;;5013871;28;20045;-55
2021/04/05 08:12:53;;;;;;;3.05;0.80;;;4.30;76.20;;;;;;5018269;28;20038;-53
2021/04/05 08:15:36;;;;;;;5.32;1.00;;;4.30;75.80;;;;;;5027532;28;20585;-54
2021/04/05 08:18:15;;;;;;;8.15;0.80;;;4.20;77.30;;;;;;5027497;28;20041;-51
2021/04/05 08:20:43;;;;;;;3.00;0.85;;;4.00;80.50;;;;;;5029923;28;20043;-54
2021/04/05 08:23:23;;;;;;;2.78;0.80;;;3.70;82.10;;;;;;5023593;28;20037;-52
2021/04/05 08:26:12;;;;;;;2.22;0.70;;;3.40;82.90;;;;;;5027607;28;20103;-51
2021/04/05 08:28:59;;;;;;;4.80;1.15;;;3.20;84.20;;;;;;5030540;28;20049;-54
2021/04/05 08:31:54;;;;;;;5.97;1.38;;;2.90;85.50;;;;;;5031967;28;20546;-54
2021/04/05 08:34:41;;;;;;;8.65;1.50;;;2.80;85.90;;;;;;5026909;28;20042;-53
2021/04/05 08:37:36;;;;;;;6.85;1.45;;;2.80;86.30;;;;;;5029602;28;20516;-53
2021/04/05 08:40:19;;;;;;;5.45;1.48;;;2.70;87.00;;;;;;5026405;28;20045;-54
2021/04/05 08:43:11;;;;;;;10.45;1.60;;;2.80;85.20;;;;;;5028858;28;20037;-51
2021/04/05 08:45:43;;;;;;;9.38;1.40;;;2.90;83.80;;;;;;5024544;28;20041;-51
2021/04/05 08:48:13;;;;;;;11.38;2.25;;;2.80;84.70;;;;;;5017539;28;20045;-53
2021/04/05 08:50:42;;;;;;;7.28;1.70;;;2.80;84.70;;;;;;5023751;28;20064;-53
2021/04/05 08:53:11;;;;;;;10.15;1.60;;;2.90;85.30;;;;;;5019821;28;20057;-54
2021/04/05 08:55:39;;;;;;;11.95;2.03;;;3.00;84.70;;;;;;5018807;28;20056;-53
2021/04/05 08:58:08;;;;;;;11.05;1.80;;;3.00;84.70;;;;;;5026612;28;20034;-54
2021/04/05 09:00:47;;;;;;;11.43;1.77;;;3.00;85.30;;;;;;5023015;28;20053;-54
2021/04/05 09:03:18;;;;;;;11.30;1.98;;;3.10;85.30;;;;;;5020387;28;20053;-54
2021/04/05 09:05:46;;;;;;;8.80;1.60;;;3.20;85.60;;;;;;5028936;28;20037;-51
2021/04/05 09:08:13;;;;;;;16.00;2.58;;;3.30;85.50;;;;;;5025496;28;20090;-53
2021/04/05 09:11:00;;;;;;;13.15;1.88;;;3.30;81.90;;;;;;5034666;28;20552;-52
2021/04/05 09:13:39;;;;;;;13.27;1.98;;;3.50;80.30;;;;;;5030336;28;20391;-55
2021/04/05 09:16:24;;;;;;;10.18;2.47;;;3.40;81.10;;;;;;5030669;28;20033;-53
2021/04/05 09:18:55;;;;;;;9.38;1.85;;;3.40;79.00;;;;;;5021060;28;20049;-54
2021/04/05 09:21:43;;;;;;;11.32;2.10;;;3.40;81.20;;;;;;5024997;28;20391;-54
2021/04/05 09:24:30;;;;;;;12.80;2.15;;;3.30;81.80;;;;;;5034424;28;20040;-54
2021/04/05 09:27:34;;;;;;;10.45;2.35;;;3.40;80.50;;;;;;5033088;28;20046;-55
2021/04/05 09:30:28;;;;;;;;;;;3.40;80.70;;;;;;5032133;28;20500;-54
2021/04/05 09:33:09;;;;;;;15.48;2.10;;;3.60;78.40;;;;;;5026031;28;20445;-51
2021/04/05 09:36:09;;;;;;;8.82;1.90;;;3.70;77.50;;;;;;5024730;28;20128;-52
2021/04/05 09:38:57;;;;;;;13.35;2.20;;;3.90;72.20;;;;;;5031019;28;20128;-52
2021/04/05 09:42:05;;;;;;;8.60;1.80;;;3.90;71.00;;;;;;5035400;28;20068;-51
2021/04/05 09:44:55;;;;;;;11.40;2.15;;;4.00;68.30;;;;;;5034593;28;20412;-54
2021/04/05 09:47:59;;;;;;;8.18;1.85;;;4.00;67.50;;;;;;5033109;28;20346;-50
2021/04/05 09:50:47;;;;;;;12.55;2.47;;;4.10;66.00;;;;;;5018254;28;20066;-51
2021/04/05 09:53:40;;;;;;;8.48;1.67;;;4.20;68.10;;;;;;5018195;28;20359;-51
2021/04/05 09:56:13;;;;;;;18.40;2.17;;;4.40;66.80;;;;;;5031922;28;20042;-51
2021/04/05 09:58:45;;;;;;;10.23;2.20;;;4.40;63.50;;;;;;5041036;28;20481;-53
2021/04/05 10:01:19;;;;;;;14.45;2.33;;;4.40;65.00;;;;;;5022813;28;20091;-54
2021/04/05 10:03:50;;;;;;;10.90;2.08;;;4.40;65.60;;;;;;5027329;28;20068;-52
2021/04/05 10:06:18;;;;;;;10.68;1.63;;;4.40;61.90;;;;;;5034355;28;20056;-54
2021/04/05 10:08:46;;;;;;;12.63;1.65;;;4.30;58.70;;;;;;5014637;28;20499;-53
2021/04/05 10:11:14;;;;;;;11.00;2.13;;;4.20;58.10;;;;;;5019011;28;20050;-51
2021/04/05 10:13:48;;;;;;;3.63;1.10;;;4.10;57.90;;;;;;5019867;28;20523;-54
2021/04/05 10:16:21;;;;;;;5.72;1.55;;;4.00;57.50;;;;;;5022169;28;20049;-54
2021/04/05 10:18:50;;;;;;;7.80;1.40;;;4.00;58.40;;;;;;5033798;28;20457;-53
2021/04/05 10:21:18;;;;;;;9.98;1.80;;;4.00;58.60;;;;;;5029550;28;20280;-52
2021/04/05 10:23:50;;;;;;;8.63;1.77;;;4.10;59.80;;;;;;5024277;28;20041;-51
2021/04/05 10:26:17;;;;;;;10.60;1.83;;;4.20;61.00;;;;;;5036065;28;20045;-54
2021/04/05 10:28:46;;;;;;;9.32;1.80;;;4.40;60.80;;;;;;5039688;28;20431;-52
2021/04/05 10:31:18;;;;;;;11.23;1.67;;;4.60;60.50;;;;;;5026102;28;20038;-52
2021/04/05 10:34:01;;;;;;;8.80;1.52;;;4.70;60.60;;;;;;5037698;28;20049;-53
2021/04/05 10:36:27;;;;;;;7.55;1.50;;;4.90;60.50;;;;;;5022295;28;20045;-52
2021/04/05 10:38:53;;;;;;;10.65;1.95;;;5.00;62.40;;;;;;5011008;28;20096;-53
2021/04/05 10:41:23;;;;;;;5.78;1.20;;;5.00;63.40;;;;;;5038347;28;20041;-52
2021/04/05 10:43:58;;;;;;;8.27;1.20;;;5.00;62.70;;;;;;5037929;28;20045;-52
2021/04/05 10:47:02;;;;;;;8.02;1.35;;;5.20;61.80;;;;;;5036924;28;20038;-54
2021/04/05 10:49:29;;;;;;;;;;;5.20;60.20;;;;;;5026355;28;20086;-50
2021/04/05 10:52:10;;;;;;;6.65;0.93;;;5.30;56.00;;;;;;5036322;28;19920;-51
2021/04/05 10:54:38;;;;;;;3.78;0.93;;;5.20;53.90;;;;;;5047326;28;20105;-54
2021/04/05 10:57:07;;;;;;;5.47;0.80;;;5.40;54.10;;;;;;5030573;28;20499;-53
2021/04/05 10:59:46;;;;;;;10.35;0.80;;;5.50;53.10;;;;;;5013403;28;20526;-52
2021/04/05 11:02:27;;;;;;;4.95;0.80;;;5.60;50.70;;;;;;5011656;28;20038;-52
2021/04/05 11:05:06;;;;;;;1.50;0.60;;;5.50;45.80;;;;;;5022385;28;20052;-50
2021/04/05 11:07:32;;;;;;;5.10;0.90;;;5.50;47.40;;;;;;5026497;28;20041;-52
2021/04/05 11:10:07;;;;;;;3.25;0.73;;;5.60;49.40;;;;;;5020457;28;20041;-53
2021/04/05 11:12:40;;;;;;;3.38;0.90;;;5.80;48.50;;;;;;5017149;28;20049;-51
2021/04/05 11:15:12;;;;;;;3.88;0.60;;;5.80;49.50;;;;;;5022317;28;20048;-52
2021/04/05 11:17:42;;;;;;;4.43;1.10;;;6.00;49.20;;;;;;5022869;28;20052;-55
2021/04/05 11:20:10;;;;;;;6.35;1.35;;;6.00;47.30;;;;;;5017731;28;20045;-55
2021/04/05 11:22:39;;;;;;;8.63;1.25;;;6.20;47.50;;;;;;5023783;28;20050;-54
2021/04/05 11:25:10;;;;;;;7.88;1.15;;;6.10;48.20;;;;;;5028932;28;20449;-51
2021/04/05 11:27:41;;;;;;;4.10;1.42;;;6.00;50.20;;;;;;5028905;28;20136;-52
2021/04/05 11:30:09;;;;;;;6.70;1.10;;;5.60;52.50;;;;;;5039415;28;20048;-55
2021/04/05 11:32:38;;;;;;;4.72;0.82;;;5.40;56.10;;;;;;5020454;28;20056;-55
2021/04/05 11:35:08;;;;;;;3.53;0.57;;;5.10;56.50;;;;;;5015831;28;20049;-54
2021/04/05 11:37:36;;;;;;;2.10;0.80;;;5.00;57.60;;;;;;5016904;28;20045;-54
2021/04/05 11:40:12;;;;;;;2.72;0.60;;;5.00;58.20;;;;;;5013871;28;20029;-54
2021/04/05 11:42:47;;;;;;;2.25;0.50;;;5.10;59.00;;;;;;5015687;28;20068;-54
2021/04/05 11:45:29;;;;;;;4.68;0.60;;;5.20;59.50;;;;;;5032869;28;20041;-54
2021/04/05 11:47:56;;;;;;;3.53;0.50;;;5.30;57.90;;;;;;5016601;28;20050;-54
2021/04/05 11:50:25;;;;;;;5.28;1.00;;;5.40;60.00;;;;;;5012848;28;20456;-55
2021/04/05 11:52:55;;;;;;;2.13;0.63;;;5.60;60.00;;;;;;5027484;28;20064;-53
2021/04/05 11:55:30;;;;;;;5.75;0.70;;;5.70;58.30;;;;;;5018371;28;20034;-51
2021/04/05 11:58:11;;;;;;;6.82;1.05;;;5.80;59.70;;;;;;5011386;28;20038;-55
2021/04/05 12:00:57;;;;;;;4.05;1.10;;;5.90;60.50;;;;;;5016864;28;20045;-54
2021/04/05 12:03:36;;;;;;;5.13;0.98;;;5.70;60.30;;;;;;5022337;28;20041;-54
2021/04/05 12:06:14;;;;;;;3.53;0.88;;;5.40;60.10;;;;;;5015441;28;20073;-55
2021/04/05 12:08:52;;;;;;;5.03;1.27;;;5.10;61.40;;;;;;5018247;28;20141;-53
2021/04/05 12:11:20;;;;;;;4.93;1.10;;;5.00;59.40;;;;;;5020776;28;20033;-53
2021/04/05 12:13:51;;;;;;;3.03;0.90;;;4.80;58.90;;;;;;5031192;28;20112;-52
2021/04/05 12:16:24;;;;;;;5.95;1.30;;;4.70;58.10;;;;;;5035050;28;20513;-53
2021/04/05 12:18:55;;;;;;;6.93;1.20;;;4.60;59.90;;;;;;5027620;28;20387;-53
2021/04/05 12:21:30;;;;;;;7.83;1.40;;;4.80;58.00;;;;;;5032165;28;20037;-54
2021/04/05 12:24:01;;;;;;;5.43;1.05;;;5.10;57.50;;;;;;5025482;28;20661;-55
2021/04/05 12:26:30;;;;;;;5.63;1.70;;;5.30;56.30;;;;;;5023092;28;20064;-53
2021/04/05 12:29:02;;;;;;;7.15;1.45;;;5.50;53.60;;;;;;5030413;28;20042;-52
2021/04/05 12:31:29;;;;;;;10.23;2.28;;;5.60;53.40;;;;;;5018423;28;20049;-52
2021/04/05 12:33:58;;;;;;;9.35;1.45;;;5.70;52.70;;;;;;5024884;28;20326;-54
2021/04/05 12:36:32;;;;;;;6.05;1.30;;;5.70;54.40;;;;;;5021456;28;20053;-51
2021/04/05 12:38:59;;;;;;;7.00;1.20;;;5.60;53.90;;;;;;5030280;28;20042;-54
2021/04/05 12:41:33;;;;;;;7.90;1.42;;;5.40;54.30;;;;;;5024097;28;20095;-51
2021/04/05 12:44:00;;;;;;;6.70;1.50;;;5.30;53.70;;;;;;5033220;28;20148;-50
2021/04/05 12:46:27;;;;;;;12.80;1.70;;;5.20;52.40;;;;;;5033363;28;20035;-52
2021/04/05 12:48:59;;;;;;;10.77;1.88;;;5.30;54.10;;;;;;5026808;28;20057;-51
2021/04/05 12:51:26;;;;;;;4.72;1.17;;;5.30;55.40;;;;;;5033965;28;20517;-49
2021/04/05 12:53:59;;;;;;;6.47;1.20;;;4.90;62.50;;;;;;5029917;28;20037;-51
2021/04/05 12:56:25;;;;;;;11.20;1.40;;;4.30;67.80;;;;;;5023184;28;20049;-49
2021/04/05 12:58:55;;;;;;;7.53;1.00;;;3.80;70.20;;;;;;5029595;28;20037;-52
2021/04/05 13:01:27;;;;;;;5.88;1.23;;;3.70;72.80;;;;;;5027174;28;20418;-50
2021/04/05 13:03:53;;;;;;;5.73;0.90;;;3.80;73.20;;;;;;5026804;28;20045;-49
2021/04/05 13:06:23;;;;;;;5.35;1.10;;;4.00;72.40;;;;;;5032343;28;20044;-52
2021/04/05 13:09:00;;;;;;;6.95;1.45;;;4.20;71.00;;;;;;5022852;28;20442;-52
2021/04/05 13:11:29;;;;;;;3.72;1.00;;;4.30;70.70;;;;;;5016869;28;20115;-50
2021/04/05 13:14:00;;;;;;;5.90;1.30;;;4.50;71.00;;;;;;5020191;28;20088;-53
2021/04/05 13:16:44;;;;;;;5.00;0.85;;;4.60;70.10;;;;;;5030616;28;20041;-49
2021/04/05 13:19:18;;;;;;;6.85;1.10;;;4.70;70.20;;;;;;5022636;28;20049;-51
2021/04/05 13:21:47;;;;;;;6.95;1.33;;;4.70;67.50;;;;;;5019552;28;20104;-50
2021/04/05 13:24:20;;;;;;;5.72;1.35;;;4.80;64.40;;;;;;5031624;28;20067;-49
2021/04/05 13:26:56;;;;;;;4.22;1.00;;;4.80;64.90;;;;;;5032149;28;20041;-52